createdAt,value
2019-04-10T00:16:28.000Z,35.7
2019-04-10T00:26:30.000Z,35.6
2019-04-10T00:36:28.000Z,35.6
2019-04-10T00:46:28.000Z,36.7
2019-04-10T00:56:29.000Z,35.1
2019-04-10T01:06:28.000Z,36.3
2019-04-10T01:16:28.000Z,34.8
2019-04-10T01:26:28.000Z,35.6
2019-04-10T01:46:28.000Z,34.5
2019-04-10T01:56:28.000Z,34.6
2019-04-10T02:06:28.000Z,34.2
2019-04-10T02:16:28.000Z,34.1
2019-04-10T02:26:28.000Z,34
2019-04-10T02:36:29.000Z,33.3
2019-04-10T02:46:28.000Z,33.7
2019-04-10T02:56:28.000Z,33.1
2019-04-10T03:06:29.000Z,32.7
2019-04-10T03:16:31.000Z,33.1
2019-04-10T03:26:28.000Z,32.2
2019-04-10T03:36:29.000Z,32.3
2019-04-10T03:46:28.000Z,32.5
2019-04-10T03:56:28.000Z,32.4
2019-04-10T04:06:28.000Z,32.2
2019-04-10T04:16:28.000Z,32.2
2019-04-10T04:26:28.000Z,32.2
2019-04-10T04:36:28.000Z,32.2
2019-04-10T04:46:28.000Z,32.3
2019-04-10T05:06:28.000Z,32.2
2019-04-10T05:16:28.000Z,32.5
2019-04-10T05:26:31.000Z,32.9
2019-04-10T05:36:28.000Z,32.6
2019-04-10T05:46:28.000Z,34.9
2019-04-10T05:56:29.000Z,36.9
2019-04-10T06:06:29.000Z,37.7
2019-04-10T06:16:29.000Z,38.4
2019-04-10T06:26:29.000Z,39
2019-04-10T06:36:29.000Z,39.3
2019-04-10T06:46:29.000Z,39.7
2019-04-10T06:56:29.000Z,40.2
2019-04-10T07:06:29.000Z,41.1
2019-04-10T07:16:29.000Z,41.9
2019-04-10T07:36:29.000Z,42.8
2019-04-10T07:46:29.000Z,47.4
2019-04-10T07:56:29.000Z,49.1
2019-04-10T08:06:29.000Z,49.7
2019-04-10T08:16:29.000Z,50.6
2019-04-10T08:26:29.000Z,51.8
2019-04-10T08:36:29.000Z,51.5
2019-04-10T08:46:29.000Z,51.9
2019-04-10T08:56:29.000Z,51.6
2019-04-10T09:06:30.000Z,51.5
2019-04-10T09:16:29.000Z,51.7
2019-04-10T09:26:29.000Z,52
2019-04-10T09:36:29.000Z,51.8
2019-04-10T09:46:29.000Z,52
2019-04-10T09:56:29.000Z,52.3
2019-04-10T10:06:29.000Z,52.6
2019-04-10T10:16:32.000Z,51.7
2019-04-10T10:26:33.000Z,52.6
2019-04-10T10:36:29.000Z,53.1
2019-04-10T10:46:29.000Z,53.5
2019-04-10T10:56:29.000Z,53.5
2019-04-10T11:16:29.000Z,53.6
2019-04-10T11:26:30.000Z,53.7
2019-04-10T11:36:29.000Z,53.8
2019-04-10T11:46:30.000Z,53.9
2019-04-10T11:56:29.000Z,54.1
2019-04-10T12:06:29.000Z,54.1
2019-04-10T12:16:29.000Z,54
2019-04-10T12:26:29.000Z,54.1
2019-04-10T12:36:29.000Z,54.1
2019-04-10T12:46:30.000Z,54
2019-04-10T13:06:30.000Z,54.1
2019-04-10T13:16:30.000Z,54
2019-04-10T13:26:30.000Z,54
2019-04-10T13:36:30.000Z,53.8
2019-04-10T13:46:30.000Z,53.7
2019-04-10T13:56:30.000Z,53.7
2019-04-10T14:06:30.000Z,53.6
2019-04-10T14:16:30.000Z,53.6
2019-04-10T14:26:30.000Z,53.5
2019-04-10T14:36:32.000Z,53.4
2019-04-10T14:46:30.000Z,53.2
2019-04-10T14:56:30.000Z,53.2
2019-04-10T15:06:30.000Z,53.1
2019-04-10T15:16:30.000Z,52.9
2019-04-10T15:26:30.000Z,52.8
2019-04-10T15:36:30.000Z,52.8
2019-04-10T15:46:34.000Z,52.7
2019-04-10T15:56:30.000Z,52.9
2019-04-10T16:06:30.000Z,52.5
2019-04-10T16:16:30.000Z,52.6
2019-04-10T16:26:30.000Z,52.6
2019-04-10T16:36:30.000Z,52.7
2019-04-10T16:46:30.000Z,52.4
2019-04-10T16:56:30.000Z,52.4
2019-04-10T17:06:30.000Z,52.4
2019-04-10T17:16:30.000Z,52.4
2019-04-10T17:26:30.000Z,52.5
2019-04-10T17:36:31.000Z,52.5
2019-04-10T17:46:30.000Z,52.5
2019-04-10T17:56:30.000Z,52.4
2019-04-10T18:06:30.000Z,52.5
2019-04-10T18:16:31.000Z,52.5
2019-04-10T18:26:30.000Z,52.1
2019-04-10T18:36:30.000Z,51.8
2019-04-10T18:46:30.000Z,51.9
2019-04-10T18:56:30.000Z,52
2019-04-10T19:06:34.000Z,52
2019-04-10T19:16:30.000Z,52
2019-04-10T19:26:30.000Z,51.8
2019-04-10T19:36:31.000Z,51.7
2019-04-10T19:46:31.000Z,51.9
2019-04-10T19:56:31.000Z,51.7
2019-04-10T20:06:32.000Z,51.4
2019-04-10T20:16:31.000Z,50.6
2019-04-10T20:26:32.000Z,49.7
2019-04-10T20:36:33.000Z,49.4
2019-04-10T20:46:31.000Z,49.2
2019-04-10T21:06:31.000Z,49.3
2019-04-10T21:26:32.000Z,30.9
2019-04-10T21:36:35.000Z,29
2019-04-10T21:46:31.000Z,28.6
2019-04-10T21:56:31.000Z,28.8
2019-04-10T22:06:31.000Z,29.4
2019-04-10T22:16:31.000Z,29.8
2019-04-10T22:26:31.000Z,29.7
2019-04-10T22:36:32.000Z,29.7
2019-04-10T22:46:31.000Z,29.6
2019-04-10T22:56:31.000Z,29.7
2019-04-10T23:06:31.000Z,29.7
2019-04-10T23:16:33.000Z,29.4
2019-04-10T23:26:32.000Z,29.3
2019-04-10T23:36:31.000Z,34.1
2019-04-10T23:46:31.000Z,31
2019-04-10T23:56:35.000Z,30.1
